Time;durP1;ratioP1;P1;durP2;ratioP2;P2;SDS_P1;SDS_P2;PMS_P1;PMS_P2;Temp;Humidity;BMP_temperature;BMP_pressure;BME280_temperature;BME280_humidity;BME280_pressure;Samples;Min_cycle;Max_cycle;Signal;HPM_P1;HPM_P2
2023/05/11 00:03:02;;;;;;;4.28;3.97;;;;;;;12.77;100.00;99709.50;10488112;28;20053;-83
2023/05/11 00:08:04;;;;;;;4.93;4.45;;;;;;;12.77;100.00;99708.66;10481575;28;20124;-82
2023/05/11 00:13:06;;;;;;;4.75;4.35;;;;;;;12.56;100.00;99705.19;10465708;28;20099;-82
2023/05/11 00:18:08;;;;;;;7.38;4.50;;;;;;;12.48;100.00;99708.19;10478933;28;20384;-82
2023/05/11 00:23:09;;;;;;;4.65;4.25;;;;;;;12.16;100.00;99706.97;10479341;28;20445;-82
2023/05/11 00:28:11;;;;;;;4.50;4.07;;;;;;;12.00;100.00;99695.41;10461967;28;20049;-82
2023/05/11 00:33:13;;;;;;;3.95;3.65;;;;;;;12.04;100.00;99697.84;10464061;28;20405;-82
2023/05/11 00:38:15;;;;;;;4.28;3.95;;;;;;;11.90;100.00;99696.69;10465625;28;20067;-81
2023/05/11 00:43:17;;;;;;;4.43;3.90;;;;;;;12.04;100.00;99697.84;10483230;28;20048;-82
2023/05/11 00:48:18;;;;;;;4.72;4.43;;;;;;;12.04;100.00;99702.22;10484549;28;20083;-81
2023/05/11 00:53:20;;;;;;;4.53;4.22;;;;;;;11.88;100.00;99693.28;10501215;28;20066;-82
2023/05/11 00:58:22;;;;;;;3.97;3.67;;;;;;;11.99;100.00;99698.94;10478981;28;20448;-82
2023/05/11 01:03:25;;;;;;;4.82;4.43;;;;;;;11.79;100.00;99705.88;10459097;28;20045;-82
2023/05/11 01:08:41;;;;;;;4.78;4.47;;;;;;;11.49;100.00;99702.72;10458959;28;20041;-82
2023/05/11 01:13:50;;;;;;;5.50;4.63;;;;;;;11.50;100.00;99701.81;10459601;28;20045;-82
2023/05/11 01:18:57;;;;;;;5.38;4.88;;;;;;;11.56;100.00;99698.94;10469761;28;20049;-83
2023/05/11 01:24:16;;;;;;;5.10;4.75;;;;;;;11.49;100.00;99700.09;10472482;28;20045;-83
2023/05/11 01:29:39;;;;;;;6.43;5.00;;;;;;;11.21;100.00;99700.38;10472179;28;20045;-83
2023/05/11 01:34:44;;;;;;;6.32;5.20;;;;;;;11.33;100.00;99699.00;10474584;28;20099;-83
2023/05/11 01:40:00;;;;;;;6.00;5.57;;;;;;;11.15;100.00;99708.47;10479145;28;20091;-82
2023/05/11 01:45:05;;;;;;;5.88;5.38;;;;;;;11.20;100.00;99701.28;10478505;28;20048;-82
2023/05/11 01:50:08;;;;;;;5.85;5.30;;;;;;;11.22;100.00;99704.69;10489045;28;20037;-82
2023/05/11 01:55:16;;;;;;;6.30;5.70;;;;;;;10.99;100.00;99710.88;10495220;28;20044;-82
2023/05/11 02:00:18;;;;;;;6.20;5.70;;;;;;;10.81;100.00;99712.44;10496104;28;20040;-82
2023/05/11 02:05:22;;;;;;;6.20;5.70;;;;;;;11.18;100.00;99710.16;10494828;28;20295;-82
2023/05/11 02:10:26;;;;;;;10.40;5.43;;;;;;;11.09;100.00;99706.94;10477415;28;20047;-82
2023/05/11 02:15:29;;;;;;;6.10;5.57;;;;;;;11.07;100.00;99707.94;10468295;28;20048;-84
2023/05/11 02:20:32;;;;;;;5.82;5.32;;;;;;;10.80;100.00;99708.09;10503803;28;20041;-82
2023/05/11 02:25:35;;;;;;;5.90;5.50;;;;;;;10.66;100.00;99705.09;10506958;28;20068;-82
2023/05/11 02:30:45;;;;;;;5.28;4.78;;;;;;;10.86;100.00;99712.25;10484892;28;20049;-82
2023/05/11 02:35:50;;;;;;;5.05;4.65;;;;;;;11.00;100.00;99712.56;10485725;28;20045;-83
2023/05/11 02:40:56;;;;;;;5.70;5.20;;;;;;;10.88;100.00;99715.66;10467257;28;20049;-83
2023/05/11 02:46:02;;;;;;;5.20;4.70;;;;;;;10.76;100.00;99710.91;10469411;28;20052;-83
2023/05/11 02:51:07;;;;;;;5.72;5.22;;;;;;;10.45;100.00;99711.19;10465296;28;20051;-83
2023/05/11 02:56:15;;;;;;;5.93;5.07;;;;;;;10.61;100.00;99707.91;10465139;28;20103;-82
2023/05/11 03:01:18;;;;;;;6.50;5.97;;;;;;;10.22;100.00;99707.53;10464734;28;20105;-83
2023/05/11 03:06:20;;;;;;;5.78;5.28;;;;;;;10.20;100.00;99712.00;10465927;28;20103;-83
2023/05/11 03:11:23;;;;;;;8.75;6.18;;;;;;;10.39;100.00;99704.34;10448627;28;20068;-83
2023/05/11 03:16:25;;;;;;;6.43;5.82;;;;;;;10.52;100.00;99712.66;10464911;28;20065;-83
2023/05/11 03:21:28;;;;;;;5.75;5.25;;;;;;;10.35;100.00;99710.63;10481888;28;20045;-83
2023/05/11 03:26:32;;;;;;;6.72;6.10;;;;;;;10.40;100.00;99705.19;10464419;28;20502;-83
2023/05/11 03:31:33;;;;;;;7.53;6.10;;;;;;;10.59;100.00;99704.50;10468710;28;20041;-83
2023/05/11 03:36:38;;;;;;;5.88;5.38;;;;;;;10.70;100.00;99705.84;10472061;28;20048;-83
2023/05/11 03:41:43;;;;;;;5.75;4.57;;;;;;;10.62;100.00;99706.13;10469389;28;20049;-82
2023/05/11 03:46:49;;;;;;;5.43;4.93;;;;;;;10.88;100.00;99713.03;10469841;28;20056;-83
2023/05/11 03:51:52;;;;;;;5.25;4.18;;;;;;;11.00;100.00;99711.72;10452987;28;20045;-83
2023/05/11 03:56:55;;;;;;;4.15;3.85;;;;;;;11.26;96.28;99710.72;10468765;28;20052;-83
2023/05/11 04:01:57;;;;;;;3.85;3.50;;;;;;;11.57;90.66;99707.69;10486199;28;20041;-82
2023/05/11 04:06:59;;;;;;;4.13;3.72;;;;;;;11.61;90.63;99712.75;10479673;28;20049;-82
2023/05/11 04:12:01;;;;;;;5.57;3.85;;;;;;;11.68;90.86;99718.63;10451983;28;20049;-84
2023/05/11 04:17:03;;;;;;;3.70;3.40;;;;;;;11.71;90.66;99710.59;10486767;28;20076;-82
2023/05/11 04:22:04;;;;;;;3.78;3.47;;;;;;;11.85;89.47;99721.44;10485782;28;20100;-81
2023/05/11 04:27:06;;;;;;;4.13;3.78;;;;;;;11.88;88.73;99709.09;10468176;28;20139;-83
2023/05/11 04:32:08;;;;;;;3.50;3.20;;;;;;;12.07;84.70;99712.63;10483999;28;20049;-82
2023/05/11 04:37:09;;;;;;;3.90;3.60;;;;;;;11.94;88.32;99714.94;10452698;28;20045;-82
2023/05/11 04:42:12;;;;;;;3.05;2.83;;;;;;;12.25;84.13;99722.38;10469338;28;20267;-82
2023/05/11 04:47:14;;;;;;;3.90;3.45;;;;;;;12.29;83.33;99723.09;10468585;28;20041;-82
2023/05/11 04:52:16;;;;;;;6.75;6.15;;;;;;;12.17;88.39;99723.63;10467892;28;20076;-82
2023/05/11 04:57:22;;;;;;;4.72;4.32;;;;;;;12.32;88.30;99730.88;10467223;28;20045;-82
2023/05/11 05:02:24;;;;;;;4.15;2.85;;;;;;;12.75;82.82;99727.19;10470296;28;20060;-81
2023/05/11 05:07:26;;;;;;;3.38;2.60;;;;;;;12.94;79.80;99729.84;10485837;28;20037;-81
2023/05/11 05:12:29;;;;;;;3.20;2.95;;;;;;;13.01;79.30;99725.97;10458584;28;20053;-81
2023/05/11 05:17:31;;;;;;;3.58;2.80;;;;;;;13.16;77.80;99726.19;10490418;28;20101;-81
2023/05/11 05:22:33;;;;;;;4.63;2.83;;;;;;;13.40;74.72;99732.97;10470092;28;20100;-81
2023/05/11 05:27:36;;;;;;;3.38;2.50;;;;;;;13.57;74.31;99735.66;10468424;28;20462;-81
2023/05/11 05:32:41;;;;;;;5.22;2.78;;;;;;;13.81;72.99;99735.34;10451452;28;20549;-83
2023/05/11 05:37:43;;;;;;;4.45;2.75;;;;;;;14.00;72.87;99738.81;10468307;28;20132;-82
2023/05/11 05:42:45;;;;;;;2.90;2.20;;;;;;;14.23;71.49;99744.72;10469085;28;20045;-82
2023/05/11 05:47:51;;;;;;;4.60;2.78;;;;;;;14.31;70.15;99740.75;10467854;28;20105;-81
2023/05/11 05:52:54;;;;;;;4.32;2.53;;;;;;;14.19;72.70;99746.66;10471056;28;20049;-83
2023/05/11 05:57:59;;;;;;;3.28;2.50;;;;;;;14.59;69.64;99749.91;10482995;28;20067;-82
2023/05/11 06:03:00;;;;;;;6.22;2.97;;;;;;;14.65;69.56;99752.22;10486418;28;20040;-80
2023/05/11 06:08:02;;;;;;;4.07;2.50;;;;;;;15.17;68.54;99746.75;10473610;28;20112;-81
2023/05/11 06:13:12;;;;;;;3.00;2.47;;;;;;;15.78;64.42;99748.63;10489951;28;20051;-80
2023/05/11 06:18:16;;;;;;;7.68;2.55;;;;;;;16.22;61.71;99746.97;10489734;28;20074;-80
2023/05/11 06:23:18;;;;;;;3.78;2.30;;;;;;;16.36;61.13;99749.63;10488610;28;20070;-82
2023/05/11 06:28:23;;;;;;;4.10;2.10;;;;;;;16.47;63.04;99752.50;10491295;28;20074;-82
2023/05/11 06:33:28;;;;;;;2.42;2.20;;;;;;;16.66;62.13;99752.25;10490151;28;20052;-82
2023/05/11 06:38:30;;;;;;;3.63;2.70;;;;;;;16.77;58.12;99752.44;10506681;28;20071;-82
2023/05/11 06:43:32;;;;;;;7.15;2.83;;;;;;;16.74;59.36;99743.84;10489568;28;20148;-81
2023/05/11 06:48:36;;;;;;;2.40;2.20;;;;;;;16.89;59.88;99748.19;10490651;28;20041;-82
2023/05/11 06:53:38;;;;;;;2.25;2.05;;;;;;;17.07;57.07;99747.03;10504445;28;20075;-82
2023/05/11 06:58:39;;;;;;;2.10;1.90;;;;;;;17.39;57.18;99746.78;10495543;28;20056;-82
2023/05/11 07:03:41;;;;;;;3.63;1.88;;;;;;;17.65;54.76;99742.44;10494347;28;20045;-83
2023/05/11 07:08:43;;;;;;;2.88;1.30;;;;;;;17.69;54.24;99749.25;10492936;28;20111;-82
2023/05/11 07:13:44;;;;;;;2.22;1.50;;;;;;;17.83;53.75;99746.56;10490580;28;20049;-82
2023/05/11 07:18:46;;;;;;;3.78;1.60;;;;;;;18.11;54.96;99752.72;10491054;28;20045;-83
2023/05/11 07:23:48;;;;;;;2.63;1.52;;;;;;;18.34;52.02;99754.66;10488294;28;20045;-83
2023/05/11 07:28:49;;;;;;;2.92;1.35;;;;;;;18.61;52.11;99746.56;10473029;28;20048;-81
2023/05/11 07:33:52;;;;;;;2.88;1.60;;;;;;;19.24;50.46;99754.63;10491562;28;20074;-82
2023/05/11 07:38:53;;;;;;;1.88;1.70;;;;;;;18.76;50.54;99760.66;10489424;28;20045;-80
2023/05/11 07:43:55;;;;;;;3.95;1.42;;;;;;;18.37;50.99;99762.44;10470988;28;20056;-82
2023/05/11 07:48:57;;;;;;;2.33;1.70;;;;;;;18.74;50.88;99751.09;10488646;28;20045;-82
2023/05/11 07:54:16;;;;;;;2.67;1.80;;;;;;;19.20;49.05;99753.97;10472939;28;20051;-81
2023/05/11 07:59:20;;;;;;;1.83;1.70;;;;;;;19.29;50.42;99755.13;10470354;28;20063;-81
2023/05/11 08:04:22;;;;;;;2.22;1.55;;;;;;;19.33;48.44;99752.13;10485898;28;20104;-82
2023/05/11 08:09:23;;;;;;;8.23;2.03;;;;;;;19.39;49.23;99764.19;10484261;28;20458;-82
2023/05/11 08:14:25;;;;;;;4.25;1.70;;;;;;;19.51;48.78;99768.59;10468291;28;20088;-82
2023/05/11 08:19:27;;;;;;;2.05;1.35;;;;;;;19.56;47.96;99765.59;10480342;28;20045;-81
2023/05/11 08:24:29;;;;;;;2.90;1.50;;;;;;;19.51;46.59;99762.44;10483715;28;20116;-81
2023/05/11 08:29:30;;;;;;;2.75;1.45;;;;;;;19.93;47.14;99765.59;10473984;28;20048;-82
2023/05/11 08:34:32;;;;;;;2.95;1.27;;;;;;;19.94;46.25;99765.47;10467858;28;20049;-83
2023/05/11 08:39:34;;;;;;;3.05;1.50;;;;;;;20.23;47.34;99768.63;10483345;28;20518;-82
2023/05/11 08:44:48;;;;;;;4.00;1.60;;;;;;;20.38;45.64;99761.25;10485181;28;20049;-82
2023/05/11 08:49:53;;;;;;;1.30;1.20;;;;;;;20.95;45.49;99768.41;10467687;28;20072;-81
2023/05/11 08:54:55;;;;;;;2.58;1.50;;;;;;;20.83;44.00;99766.69;10483264;28;20048;-81
2023/05/11 08:59:59;;;;;;;5.15;1.35;;;;;;;20.76;44.80;99770.81;10466047;28;20044;-81
2023/05/11 09:05:03;;;;;;;1.70;1.50;;;;;;;20.95;43.53;99762.22;10484927;28;20062;-82
2023/05/11 09:10:06;;;;;;;2.40;1.65;;;;;;;21.28;42.82;99764.00;10484661;28;20077;-82
2023/05/11 09:15:08;;;;;;;3.58;1.45;;;;;;;21.48;42.54;99768.63;10484644;28;20044;-82
2023/05/11 09:20:10;;;;;;;1.83;1.17;;;;;;;22.06;43.09;99761.16;10485735;28;20041;-82
2023/05/11 09:25:16;;;;;;;3.42;1.50;;;;;;;22.14;44.81;99750.69;10481757;28;20068;-81
2023/05/11 09:30:20;;;;;;;2.45;1.27;;;;;;;22.37;42.34;99748.72;10502911;22;20071;-82
2023/05/11 09:35:32;;;;;;;3.83;1.42;;;;;;;22.35;40.78;99755.19;10469245;28;20383;-83
2023/05/11 09:40:48;;;;;;;3.75;1.20;;;;;;;22.59;39.77;99745.06;10476066;28;20091;-83
2023/05/11 09:45:53;;;;;;;2.08;1.55;;;;;;;22.77;38.80;99756.00;10476869;28;20045;-83
2023/05/11 09:51:04;;;;;;;1.40;1.20;;;;;;;23.05;37.73;99757.13;10476918;28;20091;-83
2023/05/11 09:56:06;;;;;;;5.82;1.60;;;;;;;22.99;36.83;99767.56;10476399;28;20041;-82
2023/05/11 10:01:08;;;;;;;3.45;1.70;;;;;;;22.83;38.04;99754.59;10474468;28;20060;-82
2023/05/11 10:06:09;;;;;;;6.05;1.30;;;;;;;22.13;38.15;99749.00;10470381;28;20091;-81
2023/05/11 10:11:11;;;;;;;1.67;1.00;;;;;;;22.57;37.88;99747.00;10475140;28;20037;-83
2023/05/11 10:16:15;;;;;;;2.80;1.05;;;;;;;23.06;37.89;99747.25;10463290;28;20049;-82
2023/05/11 10:21:17;;;;;;;3.55;1.20;;;;;;;23.48;36.42;99747.97;10482109;28;20041;-82
2023/05/11 10:26:19;;;;;;;5.65;1.00;;;;;;;23.62;37.25;99758.28;10474628;28;20041;-83
2023/05/11 10:31:23;;;;;;;2.30;0.90;;;;;;;23.61;35.94;99745.03;10473140;28;20029;-82
2023/05/11 10:36:25;;;;;;;1.55;1.00;;;;;;;23.43;34.42;99744.84;10472807;28;20041;-83
2023/05/11 10:41:52;;;;;;;4.05;1.10;;;;;;;23.84;34.31;99745.63;10483630;28;20112;-82
2023/05/11 10:47:31;;;;;;;2.45;1.20;;;;;;;23.65;33.44;99747.31;10473918;28;20041;-84
2023/05/11 10:52:43;;;;;;;1.42;1.27;;;;;;;24.20;34.58;99748.59;10453875;28;20461;-83
2023/05/11 10:57:53;;;;;;;2.17;1.10;;;;;;;24.33;33.95;99747.28;10472573;28;20045;-83
2023/05/11 11:03:11;;;;;;;4.55;1.08;;;;;;;24.07;33.04;99747.03;10454132;28;20495;-84
2023/05/11 11:08:13;;;;;;;3.15;1.00;;;;;;;23.48;34.01;99753.31;10470807;28;20087;-84
2023/05/11 11:13:23;;;;;;;1.88;1.00;;;;;;;23.75;36.57;99739.28;10454074;28;20494;-84
2023/05/11 11:18:29;;;;;;;1.98;1.20;;;;;;;23.97;34.35;99746.19;10454259;28;20037;-83
2023/05/11 11:23:50;;;;;;;2.65;0.90;;;;;;;24.23;34.41;99751.84;10454342;28;20099;-83
2023/05/11 11:29:01;;;;;;;3.60;1.30;;;;;;;24.23;34.38;99748.31;10472984;28;20036;-84
2023/05/11 11:34:27;;;;;;;2.72;1.15;;;;;;;24.08;35.82;99753.25;10455693;28;20057;-79
2023/05/11 11:39:49;;;;;;;1.23;0.90;;;;;;;23.94;35.19;99749.16;10452147;28;20047;-78
2023/05/11 11:44:51;;;;;;;1.15;0.90;;;;;;;24.03;35.89;99750.16;10465857;28;20049;-79
2023/05/11 11:49:54;;;;;;;4.28;1.33;;;;;;;24.00;32.74;99759.34;10471634;28;20107;-80
2023/05/11 11:55:00;;;;;;;2.95;1.00;;;;;;;23.62;34.64;99760.13;10466533;28;20045;-80
2023/05/11 12:00:05;;;;;;;2.50;1.25;;;;;;;24.08;34.70;99755.94;10454207;28;20455;-80
2023/05/11 12:05:17;;;;;;;1.73;1.17;;;;;;;23.66;34.24;99762.41;10472878;28;20079;-79
2023/05/11 12:10:21;;;;;;;1.23;1.13;;;;;;;22.67;35.42;99764.00;10474223;28;20112;-79
2023/05/11 12:15:24;;;;;;;2.80;1.00;;;;;;;22.96;39.51;99768.66;10454450;28;20044;-79
2023/05/11 12:20:26;;;;;;;3.72;1.30;;;;;;;22.76;35.14;99765.03;10468692;28;20502;-78
2023/05/11 12:25:27;;;;;;;2.55;0.93;;;;;;;22.61;37.61;99775.22;10467382;28;20045;-80
2023/05/11 12:30:33;;;;;;;2.05;1.08;;;;;;;22.37;38.59;99767.47;10467475;28;20072;-78
2023/05/11 12:35:36;;;;;;;2.92;1.20;;;;;;;21.94;38.42;99772.88;10499020;28;20017;-78
2023/05/11 12:40:38;;;;;;;6.45;1.25;;;;;;;21.62;39.68;99771.03;10496476;28;20045;-78
2023/05/11 12:45:42;;;;;;;3.13;1.10;;;;;;;21.35;39.46;99767.94;10469289;28;20064;-78
2023/05/11 12:50:45;;;;;;;4.20;1.20;;;;;;;21.23;39.54;99766.19;10482995;28;20045;-79
2023/05/11 12:55:57;;;;;;;2.35;0.90;;;;;;;21.01;38.71;99778.59;10458655;28;20132;-79
2023/05/11 13:00:59;;;;;;;7.03;0.90;;;;;;;20.46;38.55;99774.03;10484350;28;20045;-79
2023/05/11 13:06:08;;;;;;;2.55;1.08;;;;;;;20.26;39.56;99780.88;10455810;28;20071;-78
2023/05/11 13:11:21;;;;;;;5.72;1.08;;;;;;;20.28;40.38;99776.28;10435939;28;20529;-79
2023/05/11 13:16:31;;;;;;;1.17;0.85;;;;;;;20.30;40.88;99782.34;10476372;28;20051;-79
2023/05/11 13:21:33;;;;;;;2.70;1.25;;;;;;;20.61;40.32;99770.19;10491383;28;20037;-80
2023/05/11 13:26:34;;;;;;;2.38;0.93;;;;;;;20.96;40.32;99772.78;10465251;28;20494;-80
2023/05/11 13:31:44;;;;;;;2.05;0.82;;;;;;;21.01;39.54;99773.25;10465802;28;20053;-79
2023/05/11 13:36:46;;;;;;;2.10;1.00;;;;;;;21.14;36.94;99765.13;10448936;28;20126;-79
2023/05/11 13:41:48;;;;;;;1.92;1.00;;;;;;;21.25;38.11;99761.56;10465878;28;20548;-80
2023/05/11 13:46:50;;;;;;;1.75;0.80;;;;;;;21.35;37.84;99762.59;10448778;28;20044;-78
2023/05/11 13:51:51;;;;;;;1.05;0.88;;;;;;;21.73;37.07;99754.09;10464918;28;20479;-79
2023/05/11 13:56:53;;;;;;;2.28;0.80;;;;;;;21.90;37.36;99755.38;10451342;28;20552;-79
2023/05/11 14:01:55;;;;;;;1.35;0.90;;;;;;;22.07;37.14;99740.56;10453551;28;20044;-79
2023/05/11 14:06:58;;;;;;;1.75;1.00;;;;;;;22.37;36.97;99739.84;10470560;28;20037;-79
2023/05/11 14:11:59;;;;;;;3.35;1.02;;;;;;;22.43;36.50;99744.66;10466478;28;20037;-78
2023/05/11 14:17:01;;;;;;;1.70;1.00;;;;;;;22.07;34.34;99746.78;10448668;28;20116;-78
2023/05/11 14:22:03;;;;;;;2.90;1.00;;;;;;;22.06;34.29;99737.06;10445548;28;20063;-78
2023/05/11 14:27:05;;;;;;;5.07;0.90;;;;;;;21.80;34.33;99725.00;10453614;28;20075;-79
2023/05/11 14:32:07;;;;;;;1.92;1.08;;;;;;;21.57;34.85;99725.09;10472908;28;20052;-80
2023/05/11 14:37:08;;;;;;;1.33;0.80;;;;;;;21.74;34.77;99728.22;10476214;28;20115;-79
2023/05/11 14:42:10;;;;;;;2.33;1.17;;;;;;;21.62;35.31;99724.72;10476381;28;20552;-80
2023/05/11 14:47:12;;;;;;;1.65;0.90;;;;;;;21.69;34.76;99725.88;10474331;28;20041;-80
2023/05/11 14:52:13;;;;;;;2.58;0.90;;;;;;;21.67;35.61;99731.38;10471064;28;20057;-79
2023/05/11 14:57:16;;;;;;;1.98;0.90;;;;;;;21.70;35.67;99726.75;10472563;28;20045;-80
2023/05/11 15:02:17;;;;;;;1.50;0.98;;;;;;;21.56;34.27;99718.06;10473074;28;20068;-80
2023/05/11 15:07:20;;;;;;;3.47;1.02;;;;;;;21.57;35.00;99733.13;10470472;28;20101;-80
2023/05/11 15:12:22;;;;;;;1.25;1.13;;;;;;;21.29;35.28;99739.81;10455803;28;20041;-79
2023/05/11 15:17:25;;;;;;;3.33;0.98;;;;;;;21.32;35.66;99744.94;10437067;28;20045;-80
2023/05/11 15:22:26;;;;;;;2.03;0.90;;;;;;;21.08;34.78;99747.75;10470076;28;20043;-80
2023/05/11 15:27:28;;;;;;;2.67;1.15;;;;;;;20.83;34.82;99762.19;10449248;28;20049;-79
2023/05/11 15:32:30;;;;;;;1.63;0.80;;;;;;;20.80;34.76;99764.25;10481347;22;20045;-81
2023/05/11 15:37:32;;;;;;;6.15;1.10;;;;;;;20.83;35.90;99753.34;10483013;28;20049;-80
2023/05/11 15:42:34;;;;;;;5.10;1.00;;;;;;;20.99;35.38;99767.19;10480193;28;20051;-80
2023/05/11 15:47:36;;;;;;;3.92;1.10;;;;;;;21.11;34.91;99754.66;10495422;28;20036;-81
2023/05/11 15:52:41;;;;;;;2.95;1.02;;;;;;;21.02;34.92;99761.59;10509035;28;20041;-81
2023/05/11 15:57:43;;;;;;;2.40;0.80;;;;;;;21.10;35.20;99760.97;10486160;28;20033;-80
2023/05/11 16:02:47;;;;;;;2.03;0.90;;;;;;;21.09;34.48;99768.16;10508290;28;20138;-80
2023/05/11 16:07:49;;;;;;;1.20;0.82;;;;;;;21.28;34.37;99766.69;10506680;28;20045;-80
2023/05/11 16:12:51;;;;;;;1.55;1.05;;;;;;;20.99;35.44;99767.19;10510479;28;20063;-80
2023/05/11 16:17:53;;;;;;;2.45;0.85;;;;;;;20.98;33.91;99770.81;10510236;28;20529;-80
2023/05/11 16:22:55;;;;;;;2.08;1.00;;;;;;;20.72;34.87;99764.88;10510775;28;20048;-79
2023/05/11 16:27:56;;;;;;;1.48;0.90;;;;;;;20.75;34.69;99769.13;10493279;28;20024;-80
2023/05/11 16:32:58;;;;;;;3.95;1.02;;;;;;;20.70;35.46;99766.81;10510098;28;20029;-81
2023/05/11 16:38:00;;;;;;;1.92;0.85;;;;;;;20.64;34.88;99770.81;10510294;28;20116;-80
2023/05/11 16:43:01;;;;;;;2.88;1.17;;;;;;;20.34;35.91;99762.47;10492424;28;20041;-80
2023/05/11 16:48:03;;;;;;;2.97;1.00;;;;;;;20.27;36.20;99769.22;10509160;28;20028;-80
2023/05/11 16:53:05;;;;;;;2.83;1.23;;;;;;;20.26;35.22;99772.88;10509594;28;20036;-81
2023/05/11 16:58:06;;;;;;;1.83;0.95;;;;;;;20.20;35.29;99776.00;10509769;28;20025;-80
2023/05/11 17:03:08;;;;;;;2.65;1.02;;;;;;;20.22;34.73;99776.72;10509540;28;20025;-81
2023/05/11 17:08:10;;;;;;;1.77;1.20;;;;;;;20.06;34.95;99787.72;10509463;28;20046;-80
2023/05/11 17:13:12;;;;;;;1.88;1.23;;;;;;;19.83;35.55;99784.09;10507906;28;20045;-79
2023/05/11 17:18:14;;;;;;;1.35;0.90;;;;;;;19.69;36.37;99787.78;10509241;28;20033;-80
2023/05/11 17:23:16;;;;;;;1.30;0.95;;;;;;;19.91;35.85;99782.56;10509044;28;20055;-82
2023/05/11 17:28:17;;;;;;;3.38;1.23;;;;;;;19.89;35.73;99791.66;10491903;28;20055;-81
2023/05/11 17:33:19;;;;;;;1.50;1.00;;;;;;;19.80;35.94;99797.66;10508058;28;20049;-80
2023/05/11 17:38:21;;;;;;;1.58;1.10;;;;;;;19.86;36.02;99790.03;10489645;28;20033;-78
2023/05/11 17:43:23;;;;;;;2.25;1.27;;;;;;;19.55;37.15;99806.56;10505246;28;20041;-80
2023/05/11 17:48:24;;;;;;;1.10;1.00;;;;;;;19.42;37.16;99803.94;10507303;28;20056;-80
2023/05/11 17:53:26;;;;;;;5.45;1.15;;;;;;;19.39;37.40;99807.69;10508368;28;20055;-80
2023/05/11 17:58:28;;;;;;;2.15;1.10;;;;;;;19.38;37.18;99813.97;10493515;28;20029;-81
2023/05/11 18:03:29;;;;;;;2.53;1.27;;;;;;;19.32;38.34;99822.41;10515936;28;20050;-80
2023/05/11 18:08:32;;;;;;;2.80;1.25;;;;;;;19.12;38.04;99831.81;10498404;28;20029;-80
2023/05/11 18:13:34;;;;;;;2.08;1.05;;;;;;;18.69;39.27;99835.72;10515649;28;20045;-80
2023/05/11 18:18:36;;;;;;;2.30;1.20;;;;;;;18.77;38.36;99841.38;10515853;28;20021;-81
2023/05/11 18:23:38;;;;;;;1.83;1.27;;;;;;;18.82;38.20;99844.59;10514954;28;20055;-81
2023/05/11 18:28:39;;;;;;;3.53;1.25;;;;;;;18.62;38.95;99852.09;10514980;28;20033;-81
2023/05/11 18:33:41;;;;;;;1.85;1.30;;;;;;;18.52;39.27;99853.69;10497075;28;20029;-80
2023/05/11 18:38:43;;;;;;;1.45;1.10;;;;;;;18.43;39.38;99859.63;10514566;28;20042;-81
2023/05/11 18:43:47;;;;;;;3.83;1.00;;;;;;;18.45;39.17;99862.19;10497279;28;20044;-81
2023/05/11 18:48:49;;;;;;;3.72;1.08;;;;;;;18.17;40.44;99869.34;10514424;28;20462;-81
2023/05/11 18:53:51;;;;;;;1.20;1.10;;;;;;;18.21;40.58;99872.66;10496971;28;20028;-81
2023/05/11 18:58:52;;;;;;;2.17;1.00;;;;;;;18.18;40.59;99878.16;10514110;28;20029;-81
2023/05/11 19:03:54;;;;;;;1.63;1.25;;;;;;;18.00;40.85;99881.06;10513922;28;20098;-80
2023/05/11 19:08:56;;;;;;;2.50;1.20;;;;;;;18.02;41.27;99887.16;10512270;28;20101;-80
2023/05/11 19:13:58;;;;;;;1.95;1.30;;;;;;;17.97;41.32;99896.38;10512559;28;20041;-80
2023/05/11 19:19:01;;;;;;;2.40;1.10;;;;;;;17.72;42.01;99902.38;10496182;28;20044;-81
2023/05/11 19:24:03;;;;;;;2.03;1.27;;;;;;;17.63;42.46;99906.47;10512955;28;20041;-80
2023/05/11 19:29:06;;;;;;;2.03;1.27;;;;;;;17.61;42.66;99911.03;10478882;28;20078;-81
2023/05/11 19:34:07;;;;;;;2.05;1.17;;;;;;;17.62;43.41;99912.75;10495306;28;20115;-80
2023/05/11 19:39:09;;;;;;;1.48;1.20;;;;;;;17.36;44.09;99919.69;10512533;28;20056;-81
2023/05/11 19:44:11;;;;;;;3.22;1.30;;;;;;;17.18;45.14;99908.38;10494817;28;20097;-81
2023/05/11 19:49:13;;;;;;;1.90;1.38;;;;;;;17.07;45.32;99918.78;10494502;28;20036;-80
2023/05/11 19:54:19;;;;;;;2.10;1.38;;;;;;;17.15;45.38;99916.53;10483362;28;20053;-80
2023/05/11 19:59:21;;;;;;;1.33;1.23;;;;;;;17.11;46.14;99923.81;10476594;28;20040;-79
2023/05/11 20:04:22;;;;;;;2.38;1.30;;;;;;;17.13;46.35;99931.69;10481948;28;20045;-80
2023/05/11 20:09:24;;;;;;;3.58;1.67;;;;;;;17.24;47.07;99925.75;10486374;28;20064;-79
2023/05/11 20:14:26;;;;;;;2.53;1.33;;;;;;;16.92;48.41;99927.69;10472019;28;20036;-80
2023/05/11 20:19:28;;;;;;;2.53;1.20;;;;;;;16.80;48.87;99923.97;10507225;28;20068;-82
2023/05/11 20:24:30;;;;;;;1.55;1.10;;;;;;;16.71;49.94;99920.00;10490885;28;20101;-80
2023/05/11 20:29:32;;;;;;;2.92;1.70;;;;;;;16.63;50.96;99917.81;10506611;28;20031;-80
2023/05/11 20:34:34;;;;;;;2.42;1.42;;;;;;;16.50;51.64;99929.22;10476217;28;20029;-79
2023/05/11 20:39:36;;;;;;;2.42;1.80;;;;;;;16.67;53.30;99920.28;10491701;28;20096;-81
2023/05/11 20:44:37;;;;;;;2.22;1.80;;;;;;;16.75;51.56;99926.03;10509631;28;20050;-82
2023/05/11 20:49:39;;;;;;;3.35;2.10;;;;;;;16.39;52.22;99921.91;10509976;28;20128;-81
2023/05/11 20:54:41;;;;;;;3.08;2.40;;;;;;;16.42;52.72;99928.81;10509742;28;20029;-82
2023/05/11 20:59:42;;;;;;;2.42;2.17;;;;;;;16.19;53.11;99930.97;10508295;28;20049;-81
2023/05/11 21:04:47;;;;;;;4.10;2.70;;;;;;;16.31;53.10;99924.97;10509715;28;20025;-81
2023/05/11 21:09:49;;;;;;;2.53;2.33;;;;;;;16.00;54.45;99923.22;10492599;28;20041;-81
2023/05/11 21:14:50;;;;;;;4.75;2.40;;;;;;;15.94;55.06;99920.03;10509331;28;20049;-81
2023/05/11 21:19:52;;;;;;;3.28;2.60;;;;;;;15.91;54.91;99914.91;10509196;28;20104;-80
2023/05/11 21:24:54;;;;;;;5.15;2.55;;;;;;;15.94;55.80;99920.03;10508999;28;20029;-81
2023/05/11 21:29:55;;;;;;;3.65;2.35;;;;;;;16.00;55.60;99923.22;10498119;22;20064;-80
2023/05/11 21:34:57;;;;;;;4.40;2.33;;;;;;;15.81;56.70;99918.06;10473975;28;20076;-82
2023/05/11 21:39:59;;;;;;;3.28;2.40;;;;;;;15.96;56.34;99921.66;10474936;28;20037;-82
2023/05/11 21:45:02;;;;;;;4.20;2.08;;;;;;;15.80;57.01;99920.78;10459066;28;20045;-83
2023/05/11 21:50:06;;;;;;;3.42;2.95;;;;;;;15.76;57.32;99925.44;10474980;28;20410;-83
2023/05/11 21:55:08;;;;;;;2.55;2.33;;;;;;;15.51;57.81;99919.72;10474105;28;20044;-81
2023/05/11 22:00:16;;;;;;;2.75;2.10;;;;;;;15.78;58.34;99935.94;10485779;28;20043;-83
2023/05/11 22:05:19;;;;;;;2.83;2.10;;;;;;;15.64;57.71;99940.19;10478549;28;20041;-83
2023/05/11 22:10:22;;;;;;;2.72;1.70;;;;;;;15.46;58.60;99938.50;10459358;28;20037;-79
2023/05/11 22:15:24;;;;;;;2.58;2.05;;;;;;;15.37;59.37;99925.75;10474872;28;20045;-82
2023/05/11 22:20:26;;;;;;;2.58;2.20;;;;;;;15.35;60.40;99928.47;10473217;28;20048;-83
2023/05/11 22:25:27;;;;;;;2.28;2.08;;;;;;;15.34;61.17;99931.19;10457345;28;20045;-81
2023/05/11 22:30:29;;;;;;;2.38;2.17;;;;;;;15.41;60.38;99929.09;10456857;28;20041;-81
2023/05/11 22:35:31;;;;;;;2.45;2.00;;;;;;;15.21;60.25;99928.34;10474091;28;20045;-81
2023/05/11 22:40:32;;;;;;;2.38;1.73;;;;;;;15.08;61.67;99933.41;10455596;28;20045;-81
2023/05/11 22:45:35;;;;;;;3.25;1.90;;;;;;;15.29;61.66;99922.66;10455421;28;20071;-83
2023/05/11 22:50:45;;;;;;;2.75;2.08;;;;;;;15.05;62.15;99938.00;10438577;28;20045;-81
2023/05/11 22:55:47;;;;;;;3.00;1.73;;;;;;;15.23;61.78;99938.84;10456150;28;20045;-82
2023/05/11 23:00:53;;;;;;;4.10;1.92;;;;;;;15.28;61.76;99931.53;10473084;28;20091;-82
2023/05/11 23:05:55;;;;;;;3.10;1.95;;;;;;;14.80;64.16;99927.84;10472486;28;20040;-82
2023/05/11 23:10:57;;;;;;;4.43;1.90;;;;;;;14.87;63.83;99927.47;10453840;28;20041;-81
2023/05/11 23:15:58;;;;;;;2.28;1.75;;;;;;;15.08;61.89;99924.63;10470035;28;20053;-82
2023/05/11 23:21:00;;;;;;;2.08;1.73;;;;;;;14.90;62.70;99923.78;10451693;28;20049;-82
2023/05/11 23:26:02;;;;;;;3.47;2.03;;;;;;;15.06;62.14;99922.06;10469783;28;20410;-81
2023/05/11 23:31:03;;;;;;;1.95;1.73;;;;;;;14.87;63.36;99924.81;10468761;28;20490;-81